createdAt,value
2019-04-07T00:00:37.388Z,8.80
2019-04-07T00:03:08.600Z,8.70
2019-04-07T00:05:40.012Z,8.70
2019-04-07T00:08:11.194Z,8.70
2019-04-07T00:10:42.499Z,8.70
2019-04-07T00:13:13.895Z,8.60
2019-04-07T00:15:45.229Z,8.70
2019-04-07T00:18:16.859Z,8.70
2019-04-07T00:20:48.498Z,8.60
2019-04-07T00:23:20.054Z,8.60
2019-04-07T00:25:51.659Z,8.60
2019-04-07T00:28:22.803Z,8.60
2019-04-07T00:30:54.110Z,8.60
2019-04-07T00:33:25.665Z,8.60
2019-04-07T00:35:56.931Z,8.60
2019-04-07T00:38:28.504Z,8.50
2019-04-07T00:40:59.468Z,8.50
2019-04-07T00:43:31.747Z,8.50
2019-04-07T00:46:03.501Z,8.50
2019-04-07T00:48:36.444Z,8.50
2019-04-07T00:51:07.838Z,8.50
2019-04-07T00:53:39.326Z,8.50
2019-04-07T00:56:10.624Z,8.50
2019-04-07T00:58:42.529Z,8.50
2019-04-07T01:01:16.448Z,8.60
2019-04-07T01:03:48.183Z,8.60
2019-04-07T01:06:19.641Z,8.60
2019-04-07T01:08:50.538Z,8.60
2019-04-07T01:11:21.606Z,8.70
2019-04-07T01:13:52.940Z,8.70
2019-04-07T01:16:25.221Z,8.70
2019-04-07T01:18:56.940Z,8.60
2019-04-07T01:21:28.105Z,8.60
2019-04-07T01:23:59.526Z,8.60
2019-04-07T01:26:30.463Z,8.60
2019-04-07T01:29:01.606Z,8.60
2019-04-07T01:31:32.978Z,8.60
2019-04-07T01:34:04.792Z,8.50
2019-04-07T01:36:35.722Z,8.50
2019-04-07T01:39:10.288Z,8.50
2019-04-07T01:41:56.302Z,8.40
2019-04-07T01:44:42.053Z,8.40
2019-04-07T01:47:27.677Z,8.40
2019-04-07T01:50:10.955Z,8.30
2019-04-07T01:53:02.536Z,8.30
2019-04-07T01:55:56.739Z,8.20
2019-04-07T01:58:44.609Z,8.10
2019-04-07T02:01:34.832Z,8.00
2019-04-07T02:04:23.720Z,7.90
2019-04-07T02:07:13.984Z,7.90
2019-04-07T02:10:03.355Z,7.80
2019-04-07T02:12:52.086Z,7.80
2019-04-07T02:15:29.482Z,7.80
2019-04-07T02:18:09.173Z,7.80
2019-04-07T02:20:59.735Z,7.80
2019-04-07T02:23:41.383Z,7.80
2019-04-07T02:26:22.381Z,7.70
2019-04-07T02:29:11.673Z,7.70
2019-04-07T02:31:52.492Z,7.60
2019-04-07T02:34:32.785Z,7.60
2019-04-07T02:37:19.307Z,7.50
2019-04-07T02:40:11.716Z,7.40
2019-04-07T02:42:48.335Z,7.40
2019-04-07T02:45:36.622Z,7.30
2019-04-07T02:48:26.929Z,7.30
2019-04-07T02:51:16.095Z,7.30
2019-04-07T02:54:10.811Z,7.30
2019-04-07T02:57:10.181Z,7.30
2019-04-07T02:59:51.562Z,7.30
2019-04-07T03:02:46.258Z,7.20
2019-04-07T03:05:40.534Z,7.20
2019-04-07T03:08:27.032Z,7.10
2019-04-07T03:11:18.034Z,7.10
2019-04-07T03:13:55.444Z,7.10
2019-04-07T03:16:41.911Z,7.10
2019-04-07T03:19:29.889Z,7.10
2019-04-07T03:22:26.032Z,7.10
2019-04-07T03:25:06.534Z,7.00
2019-04-07T03:27:49.134Z,7.00
2019-04-07T03:30:45.409Z,7.00
2019-04-07T03:33:23.627Z,6.90
2019-04-07T03:36:18.569Z,6.90
2019-04-07T03:39:03.459Z,6.90
2019-04-07T03:41:40.506Z,6.90
2019-04-07T03:44:34.401Z,6.90
2019-04-07T03:47:12.756Z,6.80
2019-04-07T03:50:16.274Z,6.80
2019-04-07T03:52:56.818Z,6.80
2019-04-07T03:55:46.745Z,6.70
2019-04-07T03:58:37.775Z,6.70
2019-04-07T04:01:28.550Z,6.60
2019-04-07T04:04:23.048Z,6.50
2019-04-07T04:07:22.376Z,6.50
2019-04-07T04:10:17.852Z,6.40
2019-04-07T04:12:56.317Z,6.40
2019-04-07T04:15:33.668Z,6.30
2019-04-07T04:18:05.461Z,6.30
2019-04-07T04:20:37.254Z,6.30
2019-04-07T04:23:08.988Z,6.30
2019-04-07T04:25:40.726Z,6.40
2019-04-07T04:28:12.104Z,6.40
2019-04-07T04:30:44.055Z,6.40
2019-04-07T04:33:15.933Z,6.30
2019-04-07T04:35:47.020Z,6.30
2019-04-07T04:38:18.153Z,6.30
2019-04-07T04:40:49.375Z,6.30
2019-04-07T04:43:20.448Z,6.30
2019-04-07T04:45:53.242Z,6.30
2019-04-07T04:48:24.347Z,6.20
2019-04-07T04:50:56.064Z,6.10
2019-04-07T04:53:29.007Z,6.20
2019-04-07T04:56:00.973Z,6.20
2019-04-07T04:58:32.486Z,6.10
2019-04-07T05:01:04.481Z,6.10
2019-04-07T05:03:36.188Z,6.10
2019-04-07T05:06:07.850Z,6.10
2019-04-07T05:08:39.213Z,6.10
2019-04-07T05:11:10.541Z,6.00
2019-04-07T05:13:42.175Z,6.00
2019-04-07T05:16:13.139Z,6.10
2019-04-07T05:18:44.954Z,6.10
2019-04-07T05:21:16.447Z,6.10
2019-04-07T05:23:48.051Z,6.10
2019-04-07T05:26:20.144Z,6.10
2019-04-07T05:28:51.186Z,6.10
2019-04-07T05:31:22.468Z,6.10
2019-04-07T05:33:54.248Z,6.10
2019-04-07T05:36:25.219Z,6.20
2019-04-07T05:38:57.443Z,6.20
2019-04-07T05:41:29.615Z,6.20
2019-04-07T05:44:01.344Z,6.20
2019-04-07T05:46:32.655Z,6.30
2019-04-07T05:49:03.546Z,6.40
2019-04-07T05:51:34.707Z,6.40
2019-04-07T05:54:05.933Z,6.40
2019-04-07T05:56:37.986Z,6.50
2019-04-07T05:59:11.655Z,6.60
2019-04-07T06:01:42.014Z,6.70
2019-04-07T06:04:16.975Z,6.90
2019-04-07T06:06:46.292Z,7.00
2019-04-07T06:09:19.033Z,7.20
2019-04-07T06:11:50.174Z,7.30
2019-04-07T06:14:21.744Z,7.50
2019-04-07T06:16:55.382Z,7.60
2019-04-07T06:19:26.042Z,7.80
2019-04-07T06:21:57.946Z,7.90
2019-04-07T06:24:31.633Z,8.10
2019-04-07T06:27:02.064Z,8.30
2019-04-07T06:29:33.404Z,8.60
2019-04-07T06:32:05.546Z,8.80
2019-04-07T06:34:41.102Z,9.10
2019-04-07T06:37:10.587Z,9.40
2019-04-07T06:39:41.738Z,9.60
2019-04-07T06:42:14.287Z,9.80
2019-04-07T06:44:45.792Z,10.00
2019-04-07T06:47:23.812Z,10.20
2019-04-07T06:50:15.725Z,10.40
2019-04-07T06:53:15.797Z,10.60
2019-04-07T06:56:05.999Z,10.80
2019-04-07T06:58:50.348Z,11.10
2019-04-07T07:01:29.749Z,11.30
2019-04-07T07:04:15.728Z,11.40
2019-04-07T07:07:07.087Z,11.60
2019-04-07T07:10:06.289Z,11.70
2019-04-07T07:13:00.977Z,11.80
2019-04-07T07:15:50.770Z,12.00
2019-04-07T07:18:28.338Z,12.10
2019-04-07T07:21:24.143Z,12.30
2019-04-07T07:23:55.821Z,12.40
2019-04-07T07:26:28.318Z,12.60
2019-04-07T07:28:59.695Z,12.70
2019-04-07T07:31:30.890Z,12.90
2019-04-07T07:34:02.832Z,13.00
2019-04-07T07:36:34.070Z,13.10
2019-04-07T07:39:10.284Z,13.20
2019-04-07T07:41:40.985Z,13.40
2019-04-07T07:44:12.295Z,13.50
2019-04-07T07:46:43.227Z,13.60
2019-04-07T07:49:14.797Z,13.70
2019-04-07T07:51:48.553Z,13.80
2019-04-07T07:54:18.738Z,13.90
2019-04-07T07:56:51.371Z,13.90
2019-04-07T07:59:22.614Z,14.00
2019-04-07T08:01:53.562Z,14.00
2019-04-07T08:04:26.413Z,14.10
2019-04-07T08:06:57.932Z,14.20
2019-04-07T08:09:28.891Z,14.30
2019-04-07T08:12:01.635Z,14.40
2019-04-07T08:14:32.937Z,14.40
2019-04-07T08:17:04.160Z,14.60
2019-04-07T08:19:35.327Z,14.60
2019-04-07T08:22:07.733Z,14.60
2019-04-07T08:24:38.934Z,14.60
2019-04-07T08:27:10.607Z,14.60
2019-04-07T08:29:41.776Z,14.70
2019-04-07T08:32:13.278Z,14.70
2019-04-07T08:34:44.955Z,14.70
2019-04-07T08:37:16.427Z,14.90
2019-04-07T08:39:47.543Z,14.90
2019-04-07T08:42:19.830Z,14.90
2019-04-07T08:44:52.302Z,15.00
2019-04-07T08:47:23.559Z,15.20
2019-04-07T08:49:56.899Z,15.40
2019-04-07T08:52:27.287Z,15.50
2019-04-07T08:54:58.686Z,15.60
2019-04-07T08:57:31.261Z,15.70
2019-04-07T09:00:02.987Z,15.80
2019-04-07T09:02:34.923Z,15.80
2019-04-07T09:05:06.639Z,15.80
2019-04-07T09:07:38.075Z,15.80
2019-04-07T09:10:18.867Z,15.80
2019-04-07T09:12:49.981Z,15.90
2019-04-07T09:15:43.046Z,16.00
2019-04-07T09:18:19.136Z,16.10
2019-04-07T09:21:12.189Z,16.20
2019-04-07T09:23:50.611Z,16.30
2019-04-07T09:26:45.694Z,16.40
2019-04-07T09:29:37.651Z,16.50
2019-04-07T09:32:25.896Z,16.70
2019-04-07T09:35:16.657Z,16.80
2019-04-07T09:37:56.352Z,16.90
2019-04-07T09:40:34.612Z,17.10
2019-04-07T09:43:25.192Z,17.30
2019-04-07T09:46:15.256Z,17.50
2019-04-07T09:49:11.778Z,17.70
2019-04-07T09:52:02.828Z,17.90
2019-04-07T09:54:59.117Z,18.00
2019-04-07T09:57:54.958Z,18.00
2019-04-07T10:00:49.115Z,18.00
2019-04-07T10:03:38.685Z,18.00
2019-04-07T10:06:28.987Z,18.00
2019-04-07T10:09:23.289Z,18.10
2019-04-07T10:12:19.680Z,18.10
2019-04-07T10:15:02.009Z,18.00
2019-04-07T10:17:55.461Z,18.00
2019-04-07T10:20:35.836Z,18.10
2019-04-07T10:23:30.036Z,18.20
2019-04-07T10:26:18.968Z,18.50
2019-04-07T10:28:57.250Z,18.60
2019-04-07T10:31:44.190Z,18.70
2019-04-07T10:34:35.459Z,18.90
2019-04-07T10:37:14.551Z,19.00
2019-04-07T10:39:59.263Z,19.00
2019-04-07T10:42:59.690Z,19.00
2019-04-07T10:45:41.771Z,19.10
2019-04-07T10:48:38.089Z,19.30
2019-04-07T10:51:31.991Z,19.30
2019-04-07T10:54:14.679Z,19.20
2019-04-07T10:57:05.110Z,19.30
2019-04-07T10:59:49.295Z,19.30
2019-04-07T11:02:39.337Z,19.40
2019-04-07T11:05:28.458Z,19.40
2019-04-07T11:08:18.271Z,19.40
2019-04-07T11:11:07.905Z,19.30
2019-04-07T11:13:51.624Z,19.30
2019-04-07T11:16:40.857Z,19.30
2019-04-07T11:19:42.278Z,19.40
2019-04-07T11:22:36.110Z,19.60
2019-04-07T11:25:18.336Z,19.90
2019-04-07T11:28:14.884Z,20.20
2019-04-07T11:31:11.142Z,20.50
2019-04-07T11:34:07.325Z,20.60
2019-04-07T11:37:01.762Z,20.50
2019-04-07T11:39:52.318Z,20.70
2019-04-07T11:42:49.022Z,20.70
2019-04-07T11:45:39.001Z,20.40
2019-04-07T11:48:17.637Z,20.20
2019-04-07T11:51:06.250Z,20.20
2019-04-07T11:53:56.672Z,20.40
2019-04-07T11:56:39.442Z,20.50
2019-04-07T11:59:26.340Z,20.50
2019-04-07T12:02:10.746Z,20.40
2019-04-07T12:05:03.298Z,20.40
2019-04-07T12:08:00.730Z,20.40
2019-04-07T12:10:58.502Z,20.50
2019-04-07T12:13:44.667Z,20.60
2019-04-07T12:17:02.433Z,20.70
2019-04-07T12:19:37.384Z,20.80
2019-04-07T12:22:23.812Z,21.00
2019-04-07T12:25:26.887Z,21.20
2019-04-07T12:28:24.658Z,21.40
2019-04-07T12:31:15.027Z,21.30
2019-04-07T12:34:05.020Z,21.50
2019-04-07T12:36:52.917Z,21.40
2019-04-07T12:39:38.645Z,21.20
2019-04-07T12:42:28.835Z,21.10
2019-04-07T12:45:25.429Z,21.00
2019-04-07T12:48:10.206Z,21.00
2019-04-07T12:50:56.334Z,21.10
2019-04-07T12:53:37.422Z,21.30
2019-04-07T12:56:15.820Z,21.20
2019-04-07T12:59:06.899Z,21.30
2019-04-07T13:02:19.190Z,21.30
2019-04-07T13:05:08.691Z,21.20
2019-04-07T13:07:51.343Z,21.20
2019-04-07T13:10:28.055Z,21.10
2019-04-07T13:13:27.762Z,20.90
2019-04-07T13:16:05.720Z,20.70
2019-04-07T13:18:45.624Z,20.60
2019-04-07T13:21:24.527Z,20.50
2019-04-07T13:24:30.177Z,20.50
2019-04-07T13:27:14.136Z,20.50
2019-04-07T13:30:15.014Z,20.60
2019-04-07T13:33:11.856Z,20.70
2019-04-07T13:35:53.477Z,20.70
2019-04-07T13:38:45.840Z,20.60
2019-04-07T13:41:44.906Z,20.60
2019-04-07T13:44:21.813Z,20.60
2019-04-07T13:47:07.255Z,20.70
2019-04-07T13:49:58.998Z,20.70
2019-04-07T13:52:35.908Z,20.60
2019-04-07T13:55:30.569Z,20.60
2019-04-07T13:58:18.627Z,20.60
2019-04-07T14:01:09.565Z,20.50
2019-04-07T14:04:00.087Z,20.40
2019-04-07T14:06:36.225Z,20.20
2019-04-07T14:09:27.198Z,20.10
2019-04-07T14:12:18.122Z,20.00
2019-04-07T14:14:59.207Z,19.80
2019-04-07T14:17:55.797Z,19.70
2019-04-07T14:20:44.823Z,19.60
2019-04-07T14:23:22.627Z,19.60
2019-04-07T14:26:25.828Z,19.70
2019-04-07T14:29:07.626Z,19.70
2019-04-07T14:31:57.639Z,19.90
2019-04-07T14:35:00.960Z,20.00
2019-04-07T14:37:41.839Z,20.20
2019-04-07T14:40:30.155Z,20.20
2019-04-07T14:43:19.827Z,20.20
2019-04-07T14:46:19.535Z,20.30
2019-04-07T14:49:05.498Z,20.30
2019-04-07T14:51:53.553Z,20.30
2019-04-07T14:54:56.615Z,20.20
2019-04-07T14:57:51.293Z,20.10
2019-04-07T15:00:48.997Z,20.10
2019-04-07T15:03:21.388Z,20.10
2019-04-07T15:05:56.409Z,20.30
2019-04-07T15:08:34.370Z,20.20
2019-04-07T15:11:26.983Z,20.10
2019-04-07T15:14:01.330Z,20.00
2019-04-07T15:16:31.685Z,20.00
2019-04-07T15:19:03.149Z,20.00
2019-04-07T15:21:34.377Z,20.00
2019-04-07T15:24:07.132Z,20.10
2019-04-07T15:26:38.930Z,20.30
2019-04-07T15:29:10.881Z,20.40
2019-04-07T15:31:42.759Z,20.40
2019-04-07T15:34:15.260Z,20.50
2019-04-07T15:36:48.414Z,20.60
2019-04-07T15:39:19.394Z,20.60
2019-04-07T15:41:51.016Z,20.50
2019-04-07T15:44:24.858Z,20.40
2019-04-07T15:46:56.536Z,20.30
2019-04-07T15:49:30.994Z,20.10
2019-04-07T15:52:04.661Z,19.90
2019-04-07T15:54:35.259Z,19.90
2019-04-07T15:57:07.019Z,19.90
2019-04-07T15:59:38.219Z,19.90
2019-04-07T16:02:11.188Z,19.90
2019-04-07T16:04:43.967Z,20.00
2019-04-07T16:07:18.363Z,20.10
2019-04-07T16:09:55.174Z,20.10
2019-04-07T16:12:22.994Z,20.10
2019-04-07T16:14:54.715Z,20.10
2019-04-07T16:17:26.433Z,20.10
2019-04-07T16:19:58.444Z,20.10
2019-04-07T16:22:29.720Z,20.00
2019-04-07T16:25:00.696Z,20.10
2019-04-07T16:27:32.996Z,20.10
2019-04-07T16:30:05.136Z,20.10
2019-04-07T16:32:37.620Z,20.00
2019-04-07T16:35:13.042Z,20.00
2019-04-07T16:37:43.804Z,20.00
2019-04-07T16:40:15.410Z,20.00
2019-04-07T16:43:01.271Z,19.90
2019-04-07T16:45:19.516Z,20.00
2019-04-07T16:47:51.247Z,20.00
2019-04-07T16:50:22.904Z,19.90
2019-04-07T16:52:55.097Z,19.90
2019-04-07T16:55:34.912Z,19.90
2019-04-07T16:58:06.470Z,20.00
2019-04-07T17:00:38.366Z,20.00
2019-04-07T17:03:10.113Z,20.20
2019-04-07T17:05:41.259Z,20.20
2019-04-07T17:08:12.843Z,20.30
2019-04-07T17:10:44.254Z,20.40
2019-04-07T17:13:20.506Z,20.30
2019-04-07T17:15:51.397Z,20.10
2019-04-07T17:18:39.166Z,19.90
2019-04-07T17:21:14.011Z,19.70
2019-04-07T17:23:46.190Z,19.50
2019-04-07T17:26:18.119Z,19.40
2019-04-07T17:28:50.025Z,19.40
2019-04-07T17:31:21.435Z,19.30
2019-04-07T17:33:52.580Z,19.30
2019-04-07T17:36:25.044Z,19.20
2019-04-07T17:39:14.422Z,19.10
2019-04-07T17:41:49.872Z,19.10
2019-04-07T17:44:37.047Z,18.90
2019-04-07T17:47:29.569Z,18.90
2019-04-07T17:50:18.072Z,18.70
2019-04-07T17:53:10.027Z,18.60
2019-04-07T17:56:07.529Z,18.50
2019-04-07T17:59:01.833Z,18.50
2019-04-07T18:01:44.247Z,18.30
2019-04-07T18:04:23.037Z,18.20
2019-04-07T18:07:12.335Z,18.20
2019-04-07T18:10:05.322Z,18.10
2019-04-07T18:12:49.898Z,18.00
2019-04-07T18:15:40.159Z,18.00
2019-04-07T18:18:24.067Z,17.90
2019-04-07T18:21:00.756Z,17.80
2019-04-07T18:23:38.282Z,17.70
2019-04-07T18:26:16.881Z,17.60
2019-04-07T18:28:59.844Z,17.50
2019-04-07T18:31:42.081Z,17.50
2019-04-07T18:34:32.141Z,17.40
2019-04-07T18:37:10.326Z,17.30
2019-04-07T18:40:01.735Z,17.10
2019-04-07T18:42:51.102Z,17.00
2019-04-07T18:45:36.347Z,16.80
2019-04-07T18:48:28.429Z,16.60
2019-04-07T18:51:17.776Z,16.40
2019-04-07T18:54:09.929Z,16.20
2019-04-07T18:57:01.439Z,16.00
2019-04-07T18:59:42.257Z,15.80
2019-04-07T19:02:26.667Z,15.60
2019-04-07T19:05:22.229Z,15.50
2019-04-07T19:08:02.708Z,15.30
2019-04-07T19:10:45.039Z,15.10
2019-04-07T19:13:37.717Z,14.90
2019-04-07T19:16:22.961Z,14.80
2019-04-07T19:19:08.572Z,14.70
2019-04-07T19:21:48.365Z,14.60
2019-04-07T19:24:42.827Z,14.50
2019-04-07T19:27:37.353Z,14.40
2019-04-07T19:30:29.128Z,14.30
2019-04-07T19:33:24.055Z,14.20
2019-04-07T19:36:12.165Z,14.10
2019-04-07T19:39:06.876Z,14.00
2019-04-07T19:41:47.131Z,13.90
2019-04-07T19:44:37.132Z,13.80
2019-04-07T19:47:15.078Z,13.70
2019-04-07T19:49:54.907Z,13.60
2019-04-07T19:52:44.199Z,13.50
2019-04-07T19:55:26.680Z,13.40
2019-04-07T19:58:10.406Z,13.40
2019-04-07T20:00:54.985Z,13.30
2019-04-07T20:03:40.519Z,13.20
2019-04-07T20:06:29.776Z,13.20
2019-04-07T20:09:30.115Z,13.20
2019-04-07T20:12:18.866Z,13.10
2019-04-07T20:15:08.108Z,13.00
2019-04-07T20:17:54.883Z,12.90
2019-04-07T20:20:40.575Z,12.90
2019-04-07T20:23:30.382Z,12.80
2019-04-07T20:26:18.616Z,12.80
2019-04-07T20:29:02.228Z,12.70
2019-04-07T20:31:51.616Z,12.60
2019-04-07T20:34:29.636Z,12.50
2019-04-07T20:37:19.203Z,12.40
2019-04-07T20:40:09.891Z,12.40
2019-04-07T20:43:10.135Z,12.30
2019-04-07T20:45:51.622Z,12.20
2019-04-07T20:48:38.875Z,12.20
2019-04-07T20:51:19.079Z,12.10
2019-04-07T20:54:10.639Z,12.00
2019-04-07T20:56:51.996Z,11.90
2019-04-07T20:59:50.450Z,11.80
2019-04-07T21:02:36.262Z,11.80
2019-04-07T21:05:28.342Z,11.60
2019-04-07T21:08:18.251Z,11.50
2019-04-07T21:11:15.164Z,11.50
2019-04-07T21:14:05.528Z,11.40
2019-04-07T21:16:57.864Z,11.30
2019-04-07T21:19:52.424Z,11.30
2019-04-07T21:22:33.519Z,11.30
2019-04-07T21:25:19.509Z,11.20
2019-04-07T21:27:54.985Z,11.20
2019-04-07T21:30:51.868Z,11.20
2019-04-07T21:33:34.590Z,11.20
2019-04-07T21:36:16.269Z,11.10
2019-04-07T21:38:58.297Z,11.10
2019-04-07T21:41:52.041Z,11.10
2019-04-07T21:44:30.535Z,11.00
2019-04-07T21:47:23.552Z,11.00
2019-04-07T21:50:07.525Z,11.00
2019-04-07T21:52:55.592Z,10.90
2019-04-07T21:55:45.701Z,10.90
2019-04-07T21:58:26.299Z,10.90
2019-04-07T22:01:08.033Z,10.80
2019-04-07T22:03:58.755Z,10.70
2019-04-07T22:06:53.476Z,10.70
2019-04-07T22:09:32.205Z,10.70
2019-04-07T22:12:03.481Z,10.70
2019-04-07T22:14:38.814Z,10.60
2019-04-07T22:17:08.104Z,10.50
2019-04-07T22:19:44.135Z,10.50
2019-04-07T22:22:11.875Z,10.40
2019-04-07T22:24:44.598Z,10.40
2019-04-07T22:27:20.396Z,10.40
2019-04-07T22:29:48.960Z,10.40
2019-04-07T22:32:22.149Z,10.30
2019-04-07T22:34:52.943Z,10.30
2019-04-07T22:37:23.856Z,10.20
2019-04-07T22:39:57.223Z,10.20
2019-04-07T22:42:27.607Z,10.20
2019-04-07T22:44:59.864Z,10.20
2019-04-07T22:47:31.606Z,10.20
2019-04-07T22:50:05.379Z,10.10
2019-04-07T22:52:36.979Z,10.10
2019-04-07T22:55:08.760Z,10.00
2019-04-07T22:57:41.067Z,10.00
2019-04-07T23:00:19.124Z,9.90
2019-04-07T23:02:52.062Z,9.90
2019-04-07T23:05:23.345Z,9.90
2019-04-07T23:07:54.754Z,9.80
2019-04-07T23:10:25.687Z,9.80
2019-04-07T23:12:57.285Z,9.70
2019-04-07T23:15:38.570Z,9.70
2019-04-07T23:18:03.211Z,9.70
2019-04-07T23:20:35.432Z,9.60
2019-04-07T23:23:06.957Z,9.60
2019-04-07T23:25:38.550Z,9.50
2019-04-07T23:28:10.292Z,9.50
2019-04-07T23:30:41.595Z,9.50
2019-04-07T23:33:12.679Z,9.50
2019-04-07T23:35:44.778Z,9.40
2019-04-07T23:38:16.132Z,9.40
2019-04-07T23:40:48.247Z,9.30
2019-04-07T23:43:19.711Z,9.30
2019-04-07T23:45:51.706Z,9.30
2019-04-07T23:48:22.933Z,9.20
2019-04-07T23:50:54.159Z,9.20
2019-04-07T23:54:02.249Z,9.10
2019-04-07T23:56:33.665Z,9.20
2019-04-07T23:59:06.155Z,9.10
